Mc Entire JNGB Airport
KMMT : now visible

Airfield :











YOU CAN JOIN US ON...

 
LOGIN :

Register | Disclaimer

   EN    FR    IT 

 









Legend :    VFR   Marginal VFR   IFR   Intensive IFR   Very Intensive IFR
Visi :
Ceiling :
>= 8 km
>= 3000ft
5 to 8 km
1000 to 3000 ft
1500m to 5 km
500 to 1000 ft
800 to 1500m
200 to 500 ft
< 800m
< 200 ft
Symbols :   Thunderstorms  Fog  Heavy snow  Heavy precipitations  Wind > 20 kt







- Airport Elevation : 254 ft


KMMT - Mc Entire JNGB

CURRENT METAR :
  • 201956Z 00000KT 10SM FEW055 29/10 A3023 RMK AO2A SLP238 T02920103 $

EXPIRED METARs :
  • 201856Z 13006KT 10SM FEW050 29/11 A3025 RMK AO2A SLP245 T02880109 $
  • 201756Z 08007KT 10SM FEW050 28/11 A3028 RMK AO2A SLP255 T02830114 10283 20147 58016 $

TAF TAF KMMT
Valid from the 20 at 15:00 until the 21 at 21:00 UTC


201500Z 2015/2121 VRB06KT 9999 FEW050 QNH3023INS TX28/2021Z TN15/2111Z
No reported NOTAMs for that airfield.



MET'MAP, your aeronautical weather chart ! - Copyright ORBIFLY December 2007 - Disclaimer

ORBIFLY MET'MAP TEAM :

Programming & Development : Alexandra Zaïnal
Concept & Development : Baudouin d'Aumeries
Co-Development & Prog : Marc-Olivier Méhu
Technical & hardware support : Manuel Goepfert

Contact : metmap@orbifly.com




SOURCES & CREDITS :

   NOAA       Earth
Advisory